Aviation Digital Data Service (ADDS)

Output produced by METARs form (0747 UTC 24 May 2018)
found at http://www.aviationweather.gov/adds/metars/
 
TAF TDPD 240500Z 2406/2506 08014KT 9999 SCT020 
     PROB30 
     TEMPO 2406/2412 5000 SHRA BKN014